sensor_id;sensor_type;location;lat;lon;timestamp;P1;durP1;ratioP1;P2;durP2;ratioP2
21036;SDS011;10677;50.942;4.028;2022-12-20T00:01:57;7.13;;;2.90;;
21036;SDS011;10677;50.942;4.028;2022-12-20T00:04:23;6.22;;;3.00;;
21036;SDS011;10677;50.942;4.028;2022-12-20T00:06:48;5.47;;;2.78;;
21036;SDS011;10677;50.942;4.028;2022-12-20T00:09:14;5.05;;;2.65;;
21036;SDS011;10677;50.942;4.028;2022-12-20T00:11:40;7.10;;;3.15;;
21036;SDS011;10677;50.942;4.028;2022-12-20T00:14:06;4.68;;;2.90;;
21036;SDS011;10677;50.942;4.028;2022-12-20T00:16:32;6.13;;;2.70;;
21036;SDS011;10677;50.942;4.028;2022-12-20T00:19:00;8.02;;;2.85;;
21036;SDS011;10677;50.942;4.028;2022-12-20T00:21:28;6.00;;;3.03;;
21036;SDS011;10677;50.942;4.028;2022-12-20T00:23:55;6.50;;;3.20;;
21036;SDS011;10677;50.942;4.028;2022-12-20T00:26:24;7.60;;;3.25;;
21036;SDS011;10677;50.942;4.028;2022-12-20T00:28:52;6.55;;;3.50;;
21036;SDS011;10677;50.942;4.028;2022-12-20T00:31:18;6.18;;;3.33;;
21036;SDS011;10677;50.942;4.028;2022-12-20T00:33:45;6.28;;;3.33;;
21036;SDS011;10677;50.942;4.028;2022-12-20T00:36:13;6.28;;;3.40;;
21036;SDS011;10677;50.942;4.028;2022-12-20T00:38:39;5.82;;;3.42;;
21036;SDS011;10677;50.942;4.028;2022-12-20T00:43:32;5.93;;;3.53;;
21036;SDS011;10677;50.942;4.028;2022-12-20T00:45:59;8.15;;;3.85;;
21036;SDS011;10677;50.942;4.028;2022-12-20T00:48:25;8.10;;;3.35;;
21036;SDS011;10677;50.942;4.028;2022-12-20T00:50:56;7.00;;;3.50;;
21036;SDS011;10677;50.942;4.028;2022-12-20T00:53:23;8.93;;;3.75;;
21036;SDS011;10677;50.942;4.028;2022-12-20T00:55:48;6.20;;;2.90;;
21036;SDS011;10677;50.942;4.028;2022-12-20T00:58:14;6.05;;;3.42;;
21036;SDS011;10677;50.942;4.028;2022-12-20T01:00:39;7.97;;;3.15;;
21036;SDS011;10677;50.942;4.028;2022-12-20T01:03:05;6.03;;;3.42;;
21036;SDS011;10677;50.942;4.028;2022-12-20T01:05:31;5.68;;;3.15;;
21036;SDS011;10677;50.942;4.028;2022-12-20T01:07:57;8.77;;;3.38;;
21036;SDS011;10677;50.942;4.028;2022-12-20T01:10:24;7.10;;;3.10;;
21036;SDS011;10677;50.942;4.028;2022-12-20T01:12:51;5.53;;;3.05;;
21036;SDS011;10677;50.942;4.028;2022-12-20T01:15:17;7.13;;;2.80;;
21036;SDS011;10677;50.942;4.028;2022-12-20T01:17:43;4.57;;;2.80;;
21036;SDS011;10677;50.942;4.028;2022-12-20T01:20:08;5.97;;;2.95;;
21036;SDS011;10677;50.942;4.028;2022-12-20T01:22:34;6.28;;;2.80;;
21036;SDS011;10677;50.942;4.028;2022-12-20T01:25:00;6.88;;;3.05;;
21036;SDS011;10677;50.942;4.028;2022-12-20T01:27:26;6.70;;;3.05;;
21036;SDS011;10677;50.942;4.028;2022-12-20T01:29:53;6.32;;;3.15;;
21036;SDS011;10677;50.942;4.028;2022-12-20T01:32:19;4.35;;;2.60;;
21036;SDS011;10677;50.942;4.028;2022-12-20T01:34:44;5.38;;;2.70;;
21036;SDS011;10677;50.942;4.028;2022-12-20T01:37:10;6.05;;;2.67;;
21036;SDS011;10677;50.942;4.028;2022-12-20T01:39:36;5.43;;;2.50;;
21036;SDS011;10677;50.942;4.028;2022-12-20T01:42:02;5.72;;;2.90;;
21036;SDS011;10677;50.942;4.028;2022-12-20T01:46:54;5.03;;;2.90;;
21036;SDS011;10677;50.942;4.028;2022-12-20T01:49:27;5.50;;;2.90;;
21036;SDS011;10677;50.942;4.028;2022-12-20T01:52:01;6.18;;;3.00;;
21036;SDS011;10677;50.942;4.028;2022-12-20T01:54:29;5.50;;;2.85;;
21036;SDS011;10677;50.942;4.028;2022-12-20T01:56:57;5.32;;;2.72;;
21036;SDS011;10677;50.942;4.028;2022-12-20T01:59:26;5.47;;;3.10;;
21036;SDS011;10677;50.942;4.028;2022-12-20T02:01:54;5.88;;;2.58;;
21036;SDS011;10677;50.942;4.028;2022-12-20T02:04:22;8.63;;;3.15;;
21036;SDS011;10677;50.942;4.028;2022-12-20T02:06:48;5.80;;;2.83;;
21036;SDS011;10677;50.942;4.028;2022-12-20T02:09:14;5.88;;;3.08;;
21036;SDS011;10677;50.942;4.028;2022-12-20T02:14:29;7.65;;;3.47;;
21036;SDS011;10677;50.942;4.028;2022-12-20T02:19:54;7.82;;;3.28;;
21036;SDS011;10677;50.942;4.028;2022-12-20T02:30:52;4.72;;;2.95;;
21036;SDS011;10677;50.942;4.028;2022-12-20T02:33:19;6.20;;;2.95;;
21036;SDS011;10677;50.942;4.028;2022-12-20T02:35:47;4.75;;;2.92;;
21036;SDS011;10677;50.942;4.028;2022-12-20T02:41:12;6.93;;;3.38;;
21036;SDS011;10677;50.942;4.028;2022-12-20T02:43:41;6.40;;;3.13;;
21036;SDS011;10677;50.942;4.028;2022-12-20T02:46:28;8.40;;;3.22;;
21036;SDS011;10677;50.942;4.028;2022-12-20T02:48:57;7.10;;;2.92;;
21036;SDS011;10677;50.942;4.028;2022-12-20T02:51:26;5.63;;;3.30;;
21036;SDS011;10677;50.942;4.028;2022-12-20T02:53:54;6.55;;;2.78;;
21036;SDS011;10677;50.942;4.028;2022-12-20T02:56:24;7.13;;;2.72;;
21036;SDS011;10677;50.942;4.028;2022-12-20T02:58:57;5.95;;;2.80;;
21036;SDS011;10677;50.942;4.028;2022-12-20T03:03:53;5.65;;;2.60;;
21036;SDS011;10677;50.942;4.028;2022-12-20T03:06:20;5.35;;;3.13;;
21036;SDS011;10677;50.942;4.028;2022-12-20T03:08:46;5.78;;;2.58;;
21036;SDS011;10677;50.942;4.028;2022-12-20T03:11:12;4.95;;;3.13;;
21036;SDS011;10677;50.942;4.028;2022-12-20T03:13:38;6.70;;;3.13;;
21036;SDS011;10677;50.942;4.028;2022-12-20T03:16:04;5.15;;;2.50;;
21036;SDS011;10677;50.942;4.028;2022-12-20T03:18:30;6.97;;;3.17;;
21036;SDS011;10677;50.942;4.028;2022-12-20T03:20:56;4.30;;;2.50;;
21036;SDS011;10677;50.942;4.028;2022-12-20T03:23:22;5.18;;;2.63;;
21036;SDS011;10677;50.942;4.028;2022-12-20T03:25:48;7.22;;;2.85;;
21036;SDS011;10677;50.942;4.028;2022-12-20T03:28:13;6.10;;;2.92;;
21036;SDS011;10677;50.942;4.028;2022-12-20T03:30:39;4.57;;;2.47;;
21036;SDS011;10677;50.942;4.028;2022-12-20T03:33:06;7.43;;;2.83;;
21036;SDS011;10677;50.942;4.028;2022-12-20T03:35:32;4.97;;;2.60;;
21036;SDS011;10677;50.942;4.028;2022-12-20T03:37:57;4.80;;;3.03;;
21036;SDS011;10677;50.942;4.028;2022-12-20T03:40:23;7.05;;;3.20;;
21036;SDS011;10677;50.942;4.028;2022-12-20T03:42:49;6.50;;;2.97;;
21036;SDS011;10677;50.942;4.028;2022-12-20T03:45:14;5.75;;;3.30;;
21036;SDS011;10677;50.942;4.028;2022-12-20T03:47:41;6.55;;;3.08;;
21036;SDS011;10677;50.942;4.028;2022-12-20T03:50:07;6.70;;;2.55;;
21036;SDS011;10677;50.942;4.028;2022-12-20T03:52:33;8.52;;;3.05;;
21036;SDS011;10677;50.942;4.028;2022-12-20T03:54:59;5.47;;;2.78;;
21036;SDS011;10677;50.942;4.028;2022-12-20T03:57:24;6.93;;;2.90;;
21036;SDS011;10677;50.942;4.028;2022-12-20T03:59:51;6.35;;;3.25;;
21036;SDS011;10677;50.942;4.028;2022-12-20T04:02:18;5.53;;;2.60;;
21036;SDS011;10677;50.942;4.028;2022-12-20T04:04:45;6.60;;;2.80;;
21036;SDS011;10677;50.942;4.028;2022-12-20T04:07:11;6.47;;;3.25;;
21036;SDS011;10677;50.942;4.028;2022-12-20T04:09:36;5.47;;;2.80;;
21036;SDS011;10677;50.942;4.028;2022-12-20T04:12:02;8.23;;;2.97;;
21036;SDS011;10677;50.942;4.028;2022-12-20T04:14:28;6.78;;;3.00;;
21036;SDS011;10677;50.942;4.028;2022-12-20T04:16:54;5.28;;;2.50;;
21036;SDS011;10677;50.942;4.028;2022-12-20T04:19:19;5.75;;;2.65;;
21036;SDS011;10677;50.942;4.028;2022-12-20T04:21:45;6.05;;;2.22;;
21036;SDS011;10677;50.942;4.028;2022-12-20T04:24:10;4.47;;;2.50;;
21036;SDS011;10677;50.942;4.028;2022-12-20T04:26:36;5.65;;;2.55;;
21036;SDS011;10677;50.942;4.028;2022-12-20T04:29:02;9.07;;;2.60;;
21036;SDS011;10677;50.942;4.028;2022-12-20T04:31:28;5.20;;;2.30;;
21036;SDS011;10677;50.942;4.028;2022-12-20T04:33:53;5.10;;;2.40;;
21036;SDS011;10677;50.942;4.028;2022-12-20T04:36:19;7.40;;;2.47;;
21036;SDS011;10677;50.942;4.028;2022-12-20T04:38:47;9.07;;;2.55;;
21036;SDS011;10677;50.942;4.028;2022-12-20T04:41:12;5.18;;;2.20;;
21036;SDS011;10677;50.942;4.028;2022-12-20T04:43:50;5.25;;;2.28;;
21036;SDS011;10677;50.942;4.028;2022-12-20T04:46:17;5.05;;;2.25;;
21036;SDS011;10677;50.942;4.028;2022-12-20T04:48:44;5.72;;;1.90;;
21036;SDS011;10677;50.942;4.028;2022-12-20T04:51:10;5.32;;;2.25;;
21036;SDS011;10677;50.942;4.028;2022-12-20T04:53:36;4.97;;;1.85;;
21036;SDS011;10677;50.942;4.028;2022-12-20T04:56:18;5.45;;;2.40;;
21036;SDS011;10677;50.942;4.028;2022-12-20T04:58:46;5.03;;;2.53;;
21036;SDS011;10677;50.942;4.028;2022-12-20T05:01:14;6.03;;;2.25;;
21036;SDS011;10677;50.942;4.028;2022-12-20T05:03:40;3.65;;;1.83;;
21036;SDS011;10677;50.942;4.028;2022-12-20T05:06:07;6.50;;;2.22;;
21036;SDS011;10677;50.942;4.028;2022-12-20T05:08:35;4.55;;;2.20;;
21036;SDS011;10677;50.942;4.028;2022-12-20T05:11:03;4.80;;;2.65;;
21036;SDS011;10677;50.942;4.028;2022-12-20T05:13:30;6.65;;;2.83;;
21036;SDS011;10677;50.942;4.028;2022-12-20T05:15:56;3.90;;;2.30;;
21036;SDS011;10677;50.942;4.028;2022-12-20T05:18:22;7.18;;;2.42;;
21036;SDS011;10677;50.942;4.028;2022-12-20T05:20:49;5.28;;;2.60;;
21036;SDS011;10677;50.942;4.028;2022-12-20T05:23:34;6.32;;;2.10;;
21036;SDS011;10677;50.942;4.028;2022-12-20T05:26:21;4.28;;;2.03;;
21036;SDS011;10677;50.942;4.028;2022-12-20T05:28:48;5.38;;;2.13;;
21036;SDS011;10677;50.942;4.028;2022-12-20T05:31:14;4.63;;;2.08;;
21036;SDS011;10677;50.942;4.028;2022-12-20T05:33:40;5.95;;;2.30;;
21036;SDS011;10677;50.942;4.028;2022-12-20T05:36:06;7.40;;;2.15;;
21036;SDS011;10677;50.942;4.028;2022-12-20T05:38:31;8.13;;;2.42;;
21036;SDS011;10677;50.942;4.028;2022-12-20T05:40:57;7.38;;;2.35;;
21036;SDS011;10677;50.942;4.028;2022-12-20T05:43:23;8.60;;;2.40;;
21036;SDS011;10677;50.942;4.028;2022-12-20T05:45:49;9.48;;;2.20;;
21036;SDS011;10677;50.942;4.028;2022-12-20T05:48:17;4.93;;;2.30;;
21036;SDS011;10677;50.942;4.028;2022-12-20T05:50:44;6.03;;;2.60;;
21036;SDS011;10677;50.942;4.028;2022-12-20T05:53:14;4.32;;;2.10;;
21036;SDS011;10677;50.942;4.028;2022-12-20T05:55:47;4.43;;;1.80;;
21036;SDS011;10677;50.942;4.028;2022-12-20T05:58:15;6.35;;;2.00;;
21036;SDS011;10677;50.942;4.028;2022-12-20T06:00:42;5.43;;;2.17;;
21036;SDS011;10677;50.942;4.028;2022-12-20T06:03:09;6.32;;;2.28;;
21036;SDS011;10677;50.942;4.028;2022-12-20T06:05:36;4.35;;;1.88;;
21036;SDS011;10677;50.942;4.028;2022-12-20T06:08:05;4.22;;;1.90;;
21036;SDS011;10677;50.942;4.028;2022-12-20T06:10:32;4.68;;;2.13;;
21036;SDS011;10677;50.942;4.028;2022-12-20T06:12:59;3.75;;;1.83;;
21036;SDS011;10677;50.942;4.028;2022-12-20T06:15:26;4.32;;;2.50;;
21036;SDS011;10677;50.942;4.028;2022-12-20T06:17:52;3.17;;;1.70;;
21036;SDS011;10677;50.942;4.028;2022-12-20T06:20:18;5.28;;;2.00;;
21036;SDS011;10677;50.942;4.028;2022-12-20T06:22:44;3.63;;;1.90;;
21036;SDS011;10677;50.942;4.028;2022-12-20T06:25:10;5.10;;;1.95;;
21036;SDS011;10677;50.942;4.028;2022-12-20T06:27:37;6.15;;;2.10;;
21036;SDS011;10677;50.942;4.028;2022-12-20T06:30:03;3.58;;;2.00;;
21036;SDS011;10677;50.942;4.028;2022-12-20T06:32:30;4.40;;;1.80;;
21036;SDS011;10677;50.942;4.028;2022-12-20T06:34:55;6.07;;;1.88;;
21036;SDS011;10677;50.942;4.028;2022-12-20T06:37:21;4.72;;;2.00;;
21036;SDS011;10677;50.942;4.028;2022-12-20T06:39:47;4.63;;;1.90;;
21036;SDS011;10677;50.942;4.028;2022-12-20T06:42:12;4.60;;;1.67;;
21036;SDS011;10677;50.942;4.028;2022-12-20T06:44:38;4.75;;;2.15;;
21036;SDS011;10677;50.942;4.028;2022-12-20T06:47:04;5.57;;;1.95;;
21036;SDS011;10677;50.942;4.028;2022-12-20T06:49:30;4.40;;;1.48;;
21036;SDS011;10677;50.942;4.028;2022-12-20T06:51:55;4.57;;;1.70;;
21036;SDS011;10677;50.942;4.028;2022-12-20T06:54:21;4.93;;;1.77;;
21036;SDS011;10677;50.942;4.028;2022-12-20T06:56:46;5.35;;;1.80;;
21036;SDS011;10677;50.942;4.028;2022-12-20T06:59:12;4.25;;;1.92;;
21036;SDS011;10677;50.942;4.028;2022-12-20T07:01:39;5.30;;;1.80;;
21036;SDS011;10677;50.942;4.028;2022-12-20T07:04:04;6.07;;;1.77;;
21036;SDS011;10677;50.942;4.028;2022-12-20T07:06:30;6.00;;;1.88;;
21036;SDS011;10677;50.942;4.028;2022-12-20T07:08:56;5.38;;;1.88;;
21036;SDS011;10677;50.942;4.028;2022-12-20T07:11:21;8.60;;;2.58;;
21036;SDS011;10677;50.942;4.028;2022-12-20T07:13:47;6.15;;;3.22;;
21036;SDS011;10677;50.942;4.028;2022-12-20T07:16:14;4.07;;;2.05;;
21036;SDS011;10677;50.942;4.028;2022-12-20T07:18:40;10.65;;;4.55;;
21036;SDS011;10677;50.942;4.028;2022-12-20T07:21:06;17.55;;;9.10;;
21036;SDS011;10677;50.942;4.028;2022-12-20T07:23:32;8.80;;;3.45;;
21036;SDS011;10677;50.942;4.028;2022-12-20T07:25:59;7.53;;;2.35;;
21036;SDS011;10677;50.942;4.028;2022-12-20T07:28:25;6.25;;;2.63;;
21036;SDS011;10677;50.942;4.028;2022-12-20T07:30:58;6.88;;;2.63;;
21036;SDS011;10677;50.942;4.028;2022-12-20T07:33:29;7.88;;;3.10;;
21036;SDS011;10677;50.942;4.028;2022-12-20T07:36:01;8.30;;;3.38;;
21036;SDS011;10677;50.942;4.028;2022-12-20T07:38:29;5.95;;;2.40;;
21036;SDS011;10677;50.942;4.028;2022-12-20T07:40:55;6.28;;;2.10;;
21036;SDS011;10677;50.942;4.028;2022-12-20T07:43:24;8.55;;;2.40;;
21036;SDS011;10677;50.942;4.028;2022-12-20T07:45:54;5.80;;;2.70;;
21036;SDS011;10677;50.942;4.028;2022-12-20T07:48:20;9.02;;;2.80;;
21036;SDS011;10677;50.942;4.028;2022-12-20T07:50:47;6.53;;;2.80;;
21036;SDS011;10677;50.942;4.028;2022-12-20T07:53:16;6.93;;;2.50;;
21036;SDS011;10677;50.942;4.028;2022-12-20T07:55:41;8.18;;;2.75;;
21036;SDS011;10677;50.942;4.028;2022-12-20T07:58:08;5.03;;;2.45;;
21036;SDS011;10677;50.942;4.028;2022-12-20T08:00:36;6.05;;;2.28;;
21036;SDS011;10677;50.942;4.028;2022-12-20T08:03:07;4.85;;;2.50;;
21036;SDS011;10677;50.942;4.028;2022-12-20T08:05:37;11.00;;;2.72;;
21036;SDS011;10677;50.942;4.028;2022-12-20T08:08:06;8.13;;;2.63;;
21036;SDS011;10677;50.942;4.028;2022-12-20T08:10:36;7.32;;;3.08;;
21036;SDS011;10677;50.942;4.028;2022-12-20T08:13:03;7.70;;;2.90;;
21036;SDS011;10677;50.942;4.028;2022-12-20T08:15:30;6.90;;;2.85;;
21036;SDS011;10677;50.942;4.028;2022-12-20T08:17:57;7.47;;;3.13;;
21036;SDS011;10677;50.942;4.028;2022-12-20T08:20:23;7.40;;;3.33;;
21036;SDS011;10677;50.942;4.028;2022-12-20T08:22:49;7.75;;;3.03;;
21036;SDS011;10677;50.942;4.028;2022-12-20T08:25:15;6.97;;;2.90;;
21036;SDS011;10677;50.942;4.028;2022-12-20T08:27:42;7.80;;;3.05;;
21036;SDS011;10677;50.942;4.028;2022-12-20T08:30:08;8.35;;;3.30;;
21036;SDS011;10677;50.942;4.028;2022-12-20T08:32:35;7.70;;;3.15;;
21036;SDS011;10677;50.942;4.028;2022-12-20T08:35:01;8.18;;;3.17;;
21036;SDS011;10677;50.942;4.028;2022-12-20T08:37:27;8.00;;;3.10;;
21036;SDS011;10677;50.942;4.028;2022-12-20T08:39:52;5.97;;;2.63;;
21036;SDS011;10677;50.942;4.028;2022-12-20T08:42:18;6.45;;;2.58;;
21036;SDS011;10677;50.942;4.028;2022-12-20T08:44:45;7.85;;;2.75;;
21036;SDS011;10677;50.942;4.028;2022-12-20T08:47:12;6.00;;;2.70;;
21036;SDS011;10677;50.942;4.028;2022-12-20T08:49:38;8.95;;;2.60;;
21036;SDS011;10677;50.942;4.028;2022-12-20T08:52:04;6.22;;;2.60;;
21036;SDS011;10677;50.942;4.028;2022-12-20T08:54:30;5.85;;;2.60;;
21036;SDS011;10677;50.942;4.028;2022-12-20T08:56:56;8.88;;;2.80;;
21036;SDS011;10677;50.942;4.028;2022-12-20T08:59:22;5.88;;;2.53;;
21036;SDS011;10677;50.942;4.028;2022-12-20T09:01:47;8.90;;;2.72;;
21036;SDS011;10677;50.942;4.028;2022-12-20T09:04:14;7.65;;;2.83;;
21036;SDS011;10677;50.942;4.028;2022-12-20T09:06:40;8.27;;;2.83;;
21036;SDS011;10677;50.942;4.028;2022-12-20T09:09:07;9.15;;;2.78;;
21036;SDS011;10677;50.942;4.028;2022-12-20T09:11:33;6.40;;;3.08;;
21036;SDS011;10677;50.942;4.028;2022-12-20T09:14:01;9.95;;;3.40;;
21036;SDS011;10677;50.942;4.028;2022-12-20T09:19:28;5.65;;;2.90;;
21036;SDS011;10677;50.942;4.028;2022-12-20T09:21:55;9.43;;;3.80;;
21036;SDS011;10677;50.942;4.028;2022-12-20T09:24:20;7.03;;;3.17;;
21036;SDS011;10677;50.942;4.028;2022-12-20T09:26:46;6.03;;;3.20;;
21036;SDS011;10677;50.942;4.028;2022-12-20T09:29:11;6.78;;;3.30;;
21036;SDS011;10677;50.942;4.028;2022-12-20T09:31:38;6.45;;;3.00;;
21036;SDS011;10677;50.942;4.028;2022-12-20T09:34:04;13.40;;;3.60;;
21036;SDS011;10677;50.942;4.028;2022-12-20T09:36:31;5.75;;;3.63;;
21036;SDS011;10677;50.942;4.028;2022-12-20T09:38:56;8.77;;;3.63;;
21036;SDS011;10677;50.942;4.028;2022-12-20T09:41:32;8.07;;;3.03;;
21036;SDS011;10677;50.942;4.028;2022-12-20T09:44:19;6.25;;;3.40;;
21036;SDS011;10677;50.942;4.028;2022-12-20T09:47:03;6.53;;;3.42;;
21036;SDS011;10677;50.942;4.028;2022-12-20T09:49:34;9.48;;;3.65;;
21036;SDS011;10677;50.942;4.028;2022-12-20T10:02:35;8.05;;;3.58;;
21036;SDS011;10677;50.942;4.028;2022-12-20T10:05:01;7.93;;;3.38;;
21036;SDS011;10677;50.942;4.028;2022-12-20T10:13:08;8.65;;;3.70;;
21036;SDS011;10677;50.942;4.028;2022-12-20T10:21:52;8.73;;;3.40;;
21036;SDS011;10677;50.942;4.028;2022-12-20T10:24:43;9.38;;;3.42;;
21036;SDS011;10677;50.942;4.028;2022-12-20T10:27:18;9.82;;;3.47;;
21036;SDS011;10677;50.942;4.028;2022-12-20T10:29:45;9.65;;;3.70;;
21036;SDS011;10677;50.942;4.028;2022-12-20T10:32:14;8.40;;;3.60;;
21036;SDS011;10677;50.942;4.028;2022-12-20T10:34:49;7.82;;;3.40;;
21036;SDS011;10677;50.942;4.028;2022-12-20T10:37:33;10.52;;;4.05;;
21036;SDS011;10677;50.942;4.028;2022-12-20T10:39:59;4.93;;;3.30;;
21036;SDS011;10677;50.942;4.028;2022-12-20T10:47:43;8.73;;;3.47;;
21036;SDS011;10677;50.942;4.028;2022-12-20T10:50:20;7.82;;;3.78;;
21036;SDS011;10677;50.942;4.028;2022-12-20T10:55:35;10.15;;;4.30;;
21036;SDS011;10677;50.942;4.028;2022-12-20T10:58:51;6.93;;;3.40;;
21036;SDS011;10677;50.942;4.028;2022-12-20T11:00:52;6.50;;;3.63;;
21036;SDS011;10677;50.942;4.028;2022-12-20T11:03:51;7.00;;;3.72;;
21036;SDS011;10677;50.942;4.028;2022-12-20T11:06:20;9.13;;;4.80;;
21036;SDS011;10677;50.942;4.028;2022-12-20T11:08:47;10.82;;;5.75;;
21036;SDS011;10677;50.942;4.028;2022-12-20T11:11:17;12.98;;;6.70;;
21036;SDS011;10677;50.942;4.028;2022-12-20T11:13:44;7.85;;;4.32;;
21036;SDS011;10677;50.942;4.028;2022-12-20T11:16:24;10.50;;;4.40;;
21036;SDS011;10677;50.942;4.028;2022-12-20T11:21:43;6.68;;;3.85;;
21036;SDS011;10677;50.942;4.028;2022-12-20T11:38:39;8.45;;;4.55;;
21036;SDS011;10677;50.942;4.028;2022-12-20T11:54:54;7.90;;;4.10;;
21036;SDS011;10677;50.942;4.028;2022-12-20T11:57:31;8.07;;;3.97;;
21036;SDS011;10677;50.942;4.028;2022-12-20T12:00:04;7.95;;;4.57;;
21036;SDS011;10677;50.942;4.028;2022-12-20T12:02:33;7.25;;;3.55;;
21036;SDS011;10677;50.942;4.028;2022-12-20T12:05:21;8.88;;;4.25;;
21036;SDS011;10677;50.942;4.028;2022-12-20T12:07:52;9.63;;;4.10;;
21036;SDS011;10677;50.942;4.028;2022-12-20T12:10:28;7.85;;;4.13;;
21036;SDS011;10677;50.942;4.028;2022-12-20T12:13:43;9.88;;;3.80;;
21036;SDS011;10677;50.942;4.028;2022-12-20T12:18:32;10.48;;;4.18;;
21036;SDS011;10677;50.942;4.028;2022-12-20T12:21:18;10.20;;;3.85;;
21036;SDS011;10677;50.942;4.028;2022-12-20T12:28:53;8.63;;;3.58;;
21036;SDS011;10677;50.942;4.028;2022-12-20T12:31:24;9.55;;;4.15;;
21036;SDS011;10677;50.942;4.028;2022-12-20T12:34:12;7.03;;;3.53;;
21036;SDS011;10677;50.942;4.028;2022-12-20T12:36:43;8.30;;;3.20;;
21036;SDS011;10677;50.942;4.028;2022-12-20T12:43:01;8.15;;;3.70;;
21036;SDS011;10677;50.942;4.028;2022-12-20T12:45:49;6.07;;;3.40;;
21036;SDS011;10677;50.942;4.028;2022-12-20T12:48:30;6.63;;;3.47;;
21036;SDS011;10677;50.942;4.028;2022-12-20T12:51:05;7.28;;;3.40;;
21036;SDS011;10677;50.942;4.028;2022-12-20T12:53:41;6.72;;;3.78;;
21036;SDS011;10677;50.942;4.028;2022-12-20T13:04:21;7.93;;;3.63;;
21036;SDS011;10677;50.942;4.028;2022-12-20T13:09:19;8.02;;;3.83;;
21036;SDS011;10677;50.942;4.028;2022-12-20T13:11:59;7.90;;;3.70;;
21036;SDS011;10677;50.942;4.028;2022-12-20T13:20:25;8.55;;;4.07;;
21036;SDS011;10677;50.942;4.028;2022-12-20T13:25:35;6.22;;;3.78;;
21036;SDS011;10677;50.942;4.028;2022-12-20T13:44:39;10.20;;;4.88;;
21036;SDS011;10677;50.942;4.028;2022-12-20T13:47:36;7.82;;;4.40;;
21036;SDS011;10677;50.942;4.028;2022-12-20T13:52:52;11.57;;;4.78;;
21036;SDS011;10677;50.942;4.028;2022-12-20T13:55:24;10.00;;;5.05;;
21036;SDS011;10677;50.942;4.028;2022-12-20T13:57:56;7.38;;;4.68;;
21036;SDS011;10677;50.942;4.028;2022-12-20T14:00:27;9.07;;;4.97;;
21036;SDS011;10677;50.942;4.028;2022-12-20T14:02:56;9.18;;;4.80;;
21036;SDS011;10677;50.942;4.028;2022-12-20T14:05:25;7.95;;;4.95;;
21036;SDS011;10677;50.942;4.028;2022-12-20T14:08:00;8.98;;;4.75;;
21036;SDS011;10677;50.942;4.028;2022-12-20T14:10:32;10.25;;;5.75;;
21036;SDS011;10677;50.942;4.028;2022-12-20T14:12:59;10.90;;;5.80;;
21036;SDS011;10677;50.942;4.028;2022-12-20T14:15:29;9.90;;;5.10;;
21036;SDS011;10677;50.942;4.028;2022-12-20T14:18:05;10.13;;;4.63;;
21036;SDS011;10677;50.942;4.028;2022-12-20T14:20:49;10.75;;;7.32;;
21036;SDS011;10677;50.942;4.028;2022-12-20T14:23:19;8.65;;;4.78;;
21036;SDS011;10677;50.942;4.028;2022-12-20T14:25:51;8.57;;;5.28;;
21036;SDS011;10677;50.942;4.028;2022-12-20T14:28:32;9.52;;;6.07;;
21036;SDS011;10677;50.942;4.028;2022-12-20T14:31:01;10.82;;;6.10;;
21036;SDS011;10677;50.942;4.028;2022-12-20T14:33:35;12.02;;;6.82;;
21036;SDS011;10677;50.942;4.028;2022-12-20T14:36:06;12.63;;;5.38;;
21036;SDS011;10677;50.942;4.028;2022-12-20T14:38:43;12.77;;;6.57;;
21036;SDS011;10677;50.942;4.028;2022-12-20T14:41:33;11.95;;;6.53;;
21036;SDS011;10677;50.942;4.028;2022-12-20T14:44:01;10.25;;;5.75;;
21036;SDS011;10677;50.942;4.028;2022-12-20T14:46:49;12.68;;;6.68;;
21036;SDS011;10677;50.942;4.028;2022-12-20T14:49:30;10.57;;;6.28;;
21036;SDS011;10677;50.942;4.028;2022-12-20T14:52:14;12.70;;;7.45;;
21036;SDS011;10677;50.942;4.028;2022-12-20T14:57:23;15.40;;;7.10;;
21036;SDS011;10677;50.942;4.028;2022-12-20T15:10:36;14.82;;;6.28;;
21036;SDS011;10677;50.942;4.028;2022-12-20T15:13:02;14.70;;;7.15;;
21036;SDS011;10677;50.942;4.028;2022-12-20T15:15:28;11.10;;;6.35;;
21036;SDS011;10677;50.942;4.028;2022-12-20T15:17:54;12.70;;;6.38;;
21036;SDS011;10677;50.942;4.028;2022-12-20T15:20:20;10.20;;;6.30;;
21036;SDS011;10677;50.942;4.028;2022-12-20T15:22:45;9.70;;;6.50;;
21036;SDS011;10677;50.942;4.028;2022-12-20T15:25:14;11.88;;;6.22;;
21036;SDS011;10677;50.942;4.028;2022-12-20T15:27:41;11.00;;;7.60;;
21036;SDS011;10677;50.942;4.028;2022-12-20T15:30:12;11.35;;;7.70;;
21036;SDS011;10677;50.942;4.028;2022-12-20T15:32:38;13.90;;;7.95;;
21036;SDS011;10677;50.942;4.028;2022-12-20T15:35:05;12.48;;;9.07;;
21036;SDS011;10677;50.942;4.028;2022-12-20T15:37:36;33.60;;;22.98;;
21036;SDS011;10677;50.942;4.028;2022-12-20T15:40:02;21.90;;;14.00;;
21036;SDS011;10677;50.942;4.028;2022-12-20T15:42:28;16.98;;;10.25;;
21036;SDS011;10677;50.942;4.028;2022-12-20T15:44:53;14.93;;;7.55;;
21036;SDS011;10677;50.942;4.028;2022-12-20T15:47:19;11.23;;;7.63;;
21036;SDS011;10677;50.942;4.028;2022-12-20T15:49:45;11.07;;;7.30;;
21036;SDS011;10677;50.942;4.028;2022-12-20T15:52:15;12.57;;;8.52;;
21036;SDS011;10677;50.942;4.028;2022-12-20T15:54:45;13.35;;;9.18;;
21036;SDS011;10677;50.942;4.028;2022-12-20T15:57:12;11.25;;;8.25;;
21036;SDS011;10677;50.942;4.028;2022-12-20T15:59:39;10.43;;;7.40;;
21036;SDS011;10677;50.942;4.028;2022-12-20T16:02:16;11.80;;;8.98;;
21036;SDS011;10677;50.942;4.028;2022-12-20T16:04:48;12.10;;;9.18;;
21036;SDS011;10677;50.942;4.028;2022-12-20T16:07:14;11.45;;;7.60;;
21036;SDS011;10677;50.942;4.028;2022-12-20T16:09:40;29.25;;;20.75;;
21036;SDS011;10677;50.942;4.028;2022-12-20T16:12:23;21.13;;;16.08;;
21036;SDS011;10677;50.942;4.028;2022-12-20T16:14:53;15.05;;;10.40;;
21036;SDS011;10677;50.942;4.028;2022-12-20T16:17:19;14.10;;;11.52;;
21036;SDS011;10677;50.942;4.028;2022-12-20T16:19:45;17.02;;;9.85;;
21036;SDS011;10677;50.942;4.028;2022-12-20T16:22:14;16.08;;;10.18;;
21036;SDS011;10677;50.942;4.028;2022-12-20T16:24:41;14.98;;;10.50;;
21036;SDS011;10677;50.942;4.028;2022-12-20T16:27:08;13.43;;;9.75;;
21036;SDS011;10677;50.942;4.028;2022-12-20T16:29:33;13.35;;;9.93;;
21036;SDS011;10677;50.942;4.028;2022-12-20T16:32:00;16.92;;;11.40;;
21036;SDS011;10677;50.942;4.028;2022-12-20T16:34:26;15.30;;;10.18;;
21036;SDS011;10677;50.942;4.028;2022-12-20T16:36:51;12.85;;;9.65;;
21036;SDS011;10677;50.942;4.028;2022-12-20T16:39:17;14.30;;;9.48;;
21036;SDS011;10677;50.942;4.028;2022-12-20T16:41:43;15.95;;;10.43;;
21036;SDS011;10677;50.942;4.028;2022-12-20T16:44:13;14.88;;;11.52;;
21036;SDS011;10677;50.942;4.028;2022-12-20T16:46:39;17.90;;;13.50;;
21036;SDS011;10677;50.942;4.028;2022-12-20T16:49:05;26.08;;;13.77;;
21036;SDS011;10677;50.942;4.028;2022-12-20T16:51:33;16.95;;;12.00;;
21036;SDS011;10677;50.942;4.028;2022-12-20T16:54:14;14.02;;;10.73;;
21036;SDS011;10677;50.942;4.028;2022-12-20T16:56:41;18.05;;;12.00;;
21036;SDS011;10677;50.942;4.028;2022-12-20T16:59:08;17.20;;;13.35;;
21036;SDS011;10677;50.942;4.028;2022-12-20T17:01:34;16.25;;;12.35;;
21036;SDS011;10677;50.942;4.028;2022-12-20T17:04:02;16.17;;;11.77;;
21036;SDS011;10677;50.942;4.028;2022-12-20T17:06:28;15.75;;;12.68;;
21036;SDS011;10677;50.942;4.028;2022-12-20T17:08:54;16.58;;;13.13;;
21036;SDS011;10677;50.942;4.028;2022-12-20T17:11:27;14.02;;;11.02;;
21036;SDS011;10677;50.942;4.028;2022-12-20T17:13:56;16.65;;;11.90;;
21036;SDS011;10677;50.942;4.028;2022-12-20T17:16:22;13.07;;;10.02;;
21036;SDS011;10677;50.942;4.028;2022-12-20T17:18:49;15.30;;;11.43;;
21036;SDS011;10677;50.942;4.028;2022-12-20T17:23:49;14.45;;;10.63;;
21036;SDS011;10677;50.942;4.028;2022-12-20T17:26:20;16.27;;;11.57;;
21036;SDS011;10677;50.942;4.028;2022-12-20T17:28:48;13.50;;;10.25;;